sensor_id;sensor_type;location;lat;lon;timestamp;temperature;humidity
75262;DHT22;63859;51.064;4.580;2024-01-10T00:01:34;-3.60;99.90
75262;DHT22;63859;51.064;4.580;2024-01-10T00:04:00;-3.70;99.90
75262;DHT22;63859;51.064;4.580;2024-01-10T00:06:26;-3.70;99.90
75262;DHT22;63859;51.064;4.580;2024-01-10T00:08:52;-3.70;99.90
75262;DHT22;63859;51.064;4.580;2024-01-10T00:11:18;-3.70;99.90
75262;DHT22;63859;51.064;4.580;2024-01-10T00:13:43;-3.70;99.90
75262;DHT22;63859;51.064;4.580;2024-01-10T00:16:12;-3.80;99.90
75262;DHT22;63859;51.064;4.580;2024-01-10T00:18:39;-3.80;99.90
75262;DHT22;63859;51.064;4.580;2024-01-10T00:21:09;-3.80;99.90
75262;DHT22;63859;51.064;4.580;2024-01-10T00:23:35;-3.80;99.90
75262;DHT22;63859;51.064;4.580;2024-01-10T00:26:01;-3.80;99.90
75262;DHT22;63859;51.064;4.580;2024-01-10T00:28:27;-3.90;99.90
75262;DHT22;63859;51.064;4.580;2024-01-10T00:30:53;-3.80;99.90
75262;DHT22;63859;51.064;4.580;2024-01-10T00:33:18;-4.00;99.90
75262;DHT22;63859;51.064;4.580;2024-01-10T00:38:10;-3.90;99.90
75262;DHT22;63859;51.064;4.580;2024-01-10T00:40:36;-3.90;99.90
75262;DHT22;63859;51.064;4.580;2024-01-10T00:43:02;-3.90;99.90
75262;DHT22;63859;51.064;4.580;2024-01-10T00:45:28;-3.90;99.90
75262;DHT22;63859;51.064;4.580;2024-01-10T00:47:53;-3.90;99.90
75262;DHT22;63859;51.064;4.580;2024-01-10T00:50:19;-3.90;99.90
75262;DHT22;63859;51.064;4.580;2024-01-10T00:52:45;-3.90;99.90
75262;DHT22;63859;51.064;4.580;2024-01-10T00:55:11;-3.90;99.90
75262;DHT22;63859;51.064;4.580;2024-01-10T00:57:37;-3.90;99.90
75262;DHT22;63859;51.064;4.580;2024-01-10T01:00:08;-3.90;99.90
75262;DHT22;63859;51.064;4.580;2024-01-10T01:02:35;-3.90;99.90
75262;DHT22;63859;51.064;4.580;2024-01-10T01:05:01;-4.00;99.90
75262;DHT22;63859;51.064;4.580;2024-01-10T01:07:27;-4.00;99.90
75262;DHT22;63859;51.064;4.580;2024-01-10T01:09:53;-4.00;99.90
75262;DHT22;63859;51.064;4.580;2024-01-10T01:12:18;-4.00;99.90
75262;DHT22;63859;51.064;4.580;2024-01-10T01:14:44;-4.00;99.90
75262;DHT22;63859;51.064;4.580;2024-01-10T01:17:10;-4.00;99.90
75262;DHT22;63859;51.064;4.580;2024-01-10T01:19:35;-4.10;99.90
75262;DHT22;63859;51.064;4.580;2024-01-10T01:22:01;-4.10;99.90
75262;DHT22;63859;51.064;4.580;2024-01-10T01:24:27;-4.10;99.90
75262;DHT22;63859;51.064;4.580;2024-01-10T01:26:52;-4.10;99.90
75262;DHT22;63859;51.064;4.580;2024-01-10T01:29:19;-4.10;99.90
75262;DHT22;63859;51.064;4.580;2024-01-10T01:31:45;-4.10;99.90
75262;DHT22;63859;51.064;4.580;2024-01-10T01:34:11;-4.00;99.90
75262;DHT22;63859;51.064;4.580;2024-01-10T01:36:37;-4.10;99.90
75262;DHT22;63859;51.064;4.580;2024-01-10T01:39:03;-4.10;99.90
75262;DHT22;63859;51.064;4.580;2024-01-10T01:41:29;-4.10;99.90
75262;DHT22;63859;51.064;4.580;2024-01-10T01:43:54;-4.10;99.90
75262;DHT22;63859;51.064;4.580;2024-01-10T01:46:20;-4.10;99.90
75262;DHT22;63859;51.064;4.580;2024-01-10T01:48:46;-4.10;99.90
75262;DHT22;63859;51.064;4.580;2024-01-10T01:51:12;-4.10;99.90
75262;DHT22;63859;51.064;4.580;2024-01-10T01:53:40;-4.10;99.90
75262;DHT22;63859;51.064;4.580;2024-01-10T01:56:07;-4.10;99.90
75262;DHT22;63859;51.064;4.580;2024-01-10T02:01:01;-4.20;99.90
75262;DHT22;63859;51.064;4.580;2024-01-10T02:03:27;-4.20;99.90
75262;DHT22;63859;51.064;4.580;2024-01-10T02:05:53;-4.10;99.90
75262;DHT22;63859;51.064;4.580;2024-01-10T02:08:19;-4.20;99.90
75262;DHT22;63859;51.064;4.580;2024-01-10T02:10:45;-4.20;99.90
75262;DHT22;63859;51.064;4.580;2024-01-10T02:13:11;-4.20;99.90
75262;DHT22;63859;51.064;4.580;2024-01-10T02:15:38;-4.20;99.90
75262;DHT22;63859;51.064;4.580;2024-01-10T02:18:04;-4.20;99.90
75262;DHT22;63859;51.064;4.580;2024-01-10T02:20:31;-4.30;99.90
75262;DHT22;63859;51.064;4.580;2024-01-10T02:22:56;-4.20;99.90
75262;DHT22;63859;51.064;4.580;2024-01-10T02:25:22;-4.30;99.90
75262;DHT22;63859;51.064;4.580;2024-01-10T02:27:48;-4.20;99.90
75262;DHT22;63859;51.064;4.580;2024-01-10T02:30:14;-4.30;99.90
75262;DHT22;63859;51.064;4.580;2024-01-10T02:32:40;-4.30;99.90
75262;DHT22;63859;51.064;4.580;2024-01-10T02:35:06;-4.20;99.90
75262;DHT22;63859;51.064;4.580;2024-01-10T02:37:32;-4.30;99.90
75262;DHT22;63859;51.064;4.580;2024-01-10T02:39:58;-4.30;99.90
75262;DHT22;63859;51.064;4.580;2024-01-10T02:42:23;-4.30;99.90
75262;DHT22;63859;51.064;4.580;2024-01-10T02:44:49;-4.20;99.90
75262;DHT22;63859;51.064;4.580;2024-01-10T02:47:15;-4.20;99.90
75262;DHT22;63859;51.064;4.580;2024-01-10T02:49:40;-4.20;99.90
75262;DHT22;63859;51.064;4.580;2024-01-10T02:52:06;-4.30;99.90
75262;DHT22;63859;51.064;4.580;2024-01-10T02:54:32;-4.30;99.90
75262;DHT22;63859;51.064;4.580;2024-01-10T02:56:57;-4.30;99.90
75262;DHT22;63859;51.064;4.580;2024-01-10T02:59:23;-4.30;99.90
75262;DHT22;63859;51.064;4.580;2024-01-10T03:01:49;-4.30;99.90
75262;DHT22;63859;51.064;4.580;2024-01-10T03:04:14;-4.30;99.90
75262;DHT22;63859;51.064;4.580;2024-01-10T03:06:40;-4.30;99.90
75262;DHT22;63859;51.064;4.580;2024-01-10T03:09:06;-4.30;99.90
75262;DHT22;63859;51.064;4.580;2024-01-10T03:11:31;-4.30;99.90
75262;DHT22;63859;51.064;4.580;2024-01-10T03:14:07;-4.30;99.90
75262;DHT22;63859;51.064;4.580;2024-01-10T03:16:33;-4.30;99.90
75262;DHT22;63859;51.064;4.580;2024-01-10T03:18:59;-4.30;99.90
75262;DHT22;63859;51.064;4.580;2024-01-10T03:21:25;-4.30;99.90
75262;DHT22;63859;51.064;4.580;2024-01-10T03:23:54;-4.30;99.90
75262;DHT22;63859;51.064;4.580;2024-01-10T03:26:20;-4.40;99.90
75262;DHT22;63859;51.064;4.580;2024-01-10T03:28:46;-4.30;99.90
75262;DHT22;63859;51.064;4.580;2024-01-10T03:31:11;-4.30;99.90
75262;DHT22;63859;51.064;4.580;2024-01-10T03:33:37;-4.30;99.90
75262;DHT22;63859;51.064;4.580;2024-01-10T03:36:04;-4.30;99.90
75262;DHT22;63859;51.064;4.580;2024-01-10T03:38:30;-4.30;99.90
75262;DHT22;63859;51.064;4.580;2024-01-10T03:40:56;-4.30;99.90
75262;DHT22;63859;51.064;4.580;2024-01-10T03:43:21;-4.30;99.90
75262;DHT22;63859;51.064;4.580;2024-01-10T03:45:47;-4.30;99.90
75262;DHT22;63859;51.064;4.580;2024-01-10T03:48:13;-4.30;99.90
75262;DHT22;63859;51.064;4.580;2024-01-10T03:50:38;-4.30;99.90
75262;DHT22;63859;51.064;4.580;2024-01-10T03:53:04;-4.30;99.90
75262;DHT22;63859;51.064;4.580;2024-01-10T03:55:29;-4.40;99.90
75262;DHT22;63859;51.064;4.580;2024-01-10T03:57:56;-4.40;99.90
75262;DHT22;63859;51.064;4.580;2024-01-10T04:00:22;-4.40;99.90
75262;DHT22;63859;51.064;4.580;2024-01-10T04:02:47;-4.40;99.90
75262;DHT22;63859;51.064;4.580;2024-01-10T04:05:13;-4.40;99.90
75262;DHT22;63859;51.064;4.580;2024-01-10T04:07:42;-4.40;99.90
75262;DHT22;63859;51.064;4.580;2024-01-10T04:10:09;-4.40;99.90
75262;DHT22;63859;51.064;4.580;2024-01-10T04:12:39;-4.40;99.90
75262;DHT22;63859;51.064;4.580;2024-01-10T04:15:05;-4.40;99.90
75262;DHT22;63859;51.064;4.580;2024-01-10T04:17:31;-4.40;99.90
75262;DHT22;63859;51.064;4.580;2024-01-10T04:19:56;-4.40;99.90
75262;DHT22;63859;51.064;4.580;2024-01-10T04:22:24;-4.40;99.90
75262;DHT22;63859;51.064;4.580;2024-01-10T04:24:50;-4.40;99.90
75262;DHT22;63859;51.064;4.580;2024-01-10T04:27:16;-4.40;99.90
75262;DHT22;63859;51.064;4.580;2024-01-10T04:29:41;-4.50;99.90
75262;DHT22;63859;51.064;4.580;2024-01-10T04:32:07;-4.50;99.90
75262;DHT22;63859;51.064;4.580;2024-01-10T04:36:59;-4.50;99.90
75262;DHT22;63859;51.064;4.580;2024-01-10T04:39:25;-4.50;99.90
75262;DHT22;63859;51.064;4.580;2024-01-10T04:41:50;-4.50;99.90
75262;DHT22;63859;51.064;4.580;2024-01-10T04:44:16;-4.50;99.90
75262;DHT22;63859;51.064;4.580;2024-01-10T04:46:42;-4.50;99.90
75262;DHT22;63859;51.064;4.580;2024-01-10T04:49:07;-4.50;99.90
75262;DHT22;63859;51.064;4.580;2024-01-10T04:51:33;-4.50;99.90
75262;DHT22;63859;51.064;4.580;2024-01-10T04:53:59;-4.50;99.90
75262;DHT22;63859;51.064;4.580;2024-01-10T04:56:25;-4.50;99.90
75262;DHT22;63859;51.064;4.580;2024-01-10T04:58:51;-4.50;99.90
75262;DHT22;63859;51.064;4.580;2024-01-10T05:01:17;-4.50;99.90
75262;DHT22;63859;51.064;4.580;2024-01-10T05:03:42;-4.60;99.90
75262;DHT22;63859;51.064;4.580;2024-01-10T05:06:08;-4.50;99.90
75262;DHT22;63859;51.064;4.580;2024-01-10T05:08:33;-4.60;99.90
75262;DHT22;63859;51.064;4.580;2024-01-10T05:10:59;-4.60;99.90
75262;DHT22;63859;51.064;4.580;2024-01-10T05:15:51;-4.60;99.90
75262;DHT22;63859;51.064;4.580;2024-01-10T05:18:18;-4.60;99.90
75262;DHT22;63859;51.064;4.580;2024-01-10T05:20:44;-4.60;99.90
75262;DHT22;63859;51.064;4.580;2024-01-10T05:23:10;-4.60;99.90
75262;DHT22;63859;51.064;4.580;2024-01-10T05:25:36;-4.60;99.90
75262;DHT22;63859;51.064;4.580;2024-01-10T05:28:02;-4.60;99.90
75262;DHT22;63859;51.064;4.580;2024-01-10T05:30:27;-4.60;99.90
75262;DHT22;63859;51.064;4.580;2024-01-10T05:32:53;-4.60;99.90
75262;DHT22;63859;51.064;4.580;2024-01-10T05:35:19;-4.60;99.90
75262;DHT22;63859;51.064;4.580;2024-01-10T05:37:45;-4.70;99.90
75262;DHT22;63859;51.064;4.580;2024-01-10T05:40:11;-4.70;99.90
75262;DHT22;63859;51.064;4.580;2024-01-10T05:42:36;-4.70;99.90
75262;DHT22;63859;51.064;4.580;2024-01-10T05:45:04;-4.60;99.90
75262;DHT22;63859;51.064;4.580;2024-01-10T05:47:29;-4.70;99.90
75262;DHT22;63859;51.064;4.580;2024-01-10T05:49:55;-4.70;99.90
75262;DHT22;63859;51.064;4.580;2024-01-10T05:54:50;-4.70;99.90
75262;DHT22;63859;51.064;4.580;2024-01-10T05:57:15;-4.70;99.90
75262;DHT22;63859;51.064;4.580;2024-01-10T05:59:41;-4.70;99.90
75262;DHT22;63859;51.064;4.580;2024-01-10T06:02:07;-4.80;99.90
75262;DHT22;63859;51.064;4.580;2024-01-10T06:04:32;-4.70;99.90
75262;DHT22;63859;51.064;4.580;2024-01-10T06:06:58;-4.80;99.90
75262;DHT22;63859;51.064;4.580;2024-01-10T06:11:50;-4.80;99.90
75262;DHT22;63859;51.064;4.580;2024-01-10T06:14:16;-4.80;99.90
75262;DHT22;63859;51.064;4.580;2024-01-10T06:16:43;-4.80;99.90
75262;DHT22;63859;51.064;4.580;2024-01-10T06:19:10;-4.80;99.90
75262;DHT22;63859;51.064;4.580;2024-01-10T06:21:37;-4.80;99.90
75262;DHT22;63859;51.064;4.580;2024-01-10T06:24:03;-4.80;99.90
75262;DHT22;63859;51.064;4.580;2024-01-10T06:26:28;-4.80;99.90
75262;DHT22;63859;51.064;4.580;2024-01-10T06:28:54;-4.80;99.90
75262;DHT22;63859;51.064;4.580;2024-01-10T06:31:20;-4.80;99.90
75262;DHT22;63859;51.064;4.580;2024-01-10T06:33:46;-4.90;99.90
75262;DHT22;63859;51.064;4.580;2024-01-10T06:36:11;-4.80;99.90
75262;DHT22;63859;51.064;4.580;2024-01-10T06:38:39;-4.80;99.90
75262;DHT22;63859;51.064;4.580;2024-01-10T06:41:09;-4.80;99.90
75262;DHT22;63859;51.064;4.580;2024-01-10T06:43:36;-4.80;99.90
75262;DHT22;63859;51.064;4.580;2024-01-10T06:46:02;-4.80;99.90
75262;DHT22;63859;51.064;4.580;2024-01-10T06:48:29;-4.80;99.90
75262;DHT22;63859;51.064;4.580;2024-01-10T06:50:55;-4.90;99.90
75262;DHT22;63859;51.064;4.580;2024-01-10T06:53:21;-4.80;99.90
75262;DHT22;63859;51.064;4.580;2024-01-10T06:55:47;-4.90;99.90
75262;DHT22;63859;51.064;4.580;2024-01-10T06:58:12;-4.90;99.90
75262;DHT22;63859;51.064;4.580;2024-01-10T07:00:38;-4.90;99.90
75262;DHT22;63859;51.064;4.580;2024-01-10T07:03:04;-4.90;99.90
75262;DHT22;63859;51.064;4.580;2024-01-10T07:05:30;-5.00;99.90
75262;DHT22;63859;51.064;4.580;2024-01-10T07:07:59;-4.90;99.90
75262;DHT22;63859;51.064;4.580;2024-01-10T07:10:31;-4.90;99.90
75262;DHT22;63859;51.064;4.580;2024-01-10T07:12:57;-4.90;99.90
75262;DHT22;63859;51.064;4.580;2024-01-10T07:15:23;-5.00;99.90
75262;DHT22;63859;51.064;4.580;2024-01-10T07:17:49;-5.00;99.90
75262;DHT22;63859;51.064;4.580;2024-01-10T07:20:14;-5.00;99.90
75262;DHT22;63859;51.064;4.580;2024-01-10T07:22:40;-5.00;99.90
75262;DHT22;63859;51.064;4.580;2024-01-10T07:25:12;-5.00;99.90
75262;DHT22;63859;51.064;4.580;2024-01-10T07:27:43;-5.00;99.90
75262;DHT22;63859;51.064;4.580;2024-01-10T07:30:09;-5.00;99.90
75262;DHT22;63859;51.064;4.580;2024-01-10T07:32:45;-5.00;99.90
75262;DHT22;63859;51.064;4.580;2024-01-10T07:35:12;-4.90;99.90
75262;DHT22;63859;51.064;4.580;2024-01-10T07:37:40;-5.00;99.90
75262;DHT22;63859;51.064;4.580;2024-01-10T07:40:06;-4.90;99.90
75262;DHT22;63859;51.064;4.580;2024-01-10T07:42:34;-5.00;99.90
75262;DHT22;63859;51.064;4.580;2024-01-10T07:45:00;-4.90;99.90
75262;DHT22;63859;51.064;4.580;2024-01-10T07:47:33;-4.90;99.90
75262;DHT22;63859;51.064;4.580;2024-01-10T07:50:09;-4.90;99.90
75262;DHT22;63859;51.064;4.580;2024-01-10T07:52:35;-4.90;99.90
75262;DHT22;63859;51.064;4.580;2024-01-10T07:55:01;-4.90;99.90
75262;DHT22;63859;51.064;4.580;2024-01-10T07:57:27;-4.90;99.90
75262;DHT22;63859;51.064;4.580;2024-01-10T07:59:53;-4.80;99.90
75262;DHT22;63859;51.064;4.580;2024-01-10T08:02:19;-4.90;99.90
75262;DHT22;63859;51.064;4.580;2024-01-10T08:04:45;-4.90;99.90
75262;DHT22;63859;51.064;4.580;2024-01-10T08:07:10;-5.00;99.90
75262;DHT22;63859;51.064;4.580;2024-01-10T08:09:36;-4.90;99.90
75262;DHT22;63859;51.064;4.580;2024-01-10T08:12:03;-4.90;99.90
75262;DHT22;63859;51.064;4.580;2024-01-10T08:14:28;-4.90;99.90
75262;DHT22;63859;51.064;4.580;2024-01-10T08:16:54;-4.90;99.90
75262;DHT22;63859;51.064;4.580;2024-01-10T08:19:23;-4.80;99.90
75262;DHT22;63859;51.064;4.580;2024-01-10T08:21:51;-4.80;99.90
75262;DHT22;63859;51.064;4.580;2024-01-10T08:24:17;-4.80;99.90
75262;DHT22;63859;51.064;4.580;2024-01-10T08:29:09;-4.80;99.90
75262;DHT22;63859;51.064;4.580;2024-01-10T08:31:34;-4.80;99.90
75262;DHT22;63859;51.064;4.580;2024-01-10T08:34:00;-4.80;99.90
75262;DHT22;63859;51.064;4.580;2024-01-10T08:36:26;-4.70;99.90
75262;DHT22;63859;51.064;4.580;2024-01-10T08:38:52;-4.70;99.90
75262;DHT22;63859;51.064;4.580;2024-01-10T08:41:18;-4.60;99.90
75262;DHT22;63859;51.064;4.580;2024-01-10T08:43:47;-4.80;99.90
75262;DHT22;63859;51.064;4.580;2024-01-10T08:46:13;-4.70;99.90
75262;DHT22;63859;51.064;4.580;2024-01-10T08:48:39;-4.60;99.90
75262;DHT22;63859;51.064;4.580;2024-01-10T08:51:05;-4.60;99.90
75262;DHT22;63859;51.064;4.580;2024-01-10T08:53:31;-4.60;99.90
75262;DHT22;63859;51.064;4.580;2024-01-10T08:55:56;-4.50;99.90
75262;DHT22;63859;51.064;4.580;2024-01-10T08:58:22;-4.50;99.90
75262;DHT22;63859;51.064;4.580;2024-01-10T09:00:47;-4.40;99.90
75262;DHT22;63859;51.064;4.580;2024-01-10T09:03:13;-4.40;99.90
75262;DHT22;63859;51.064;4.580;2024-01-10T09:05:39;-4.40;99.90
75262;DHT22;63859;51.064;4.580;2024-01-10T09:08:05;-4.40;99.90
75262;DHT22;63859;51.064;4.580;2024-01-10T09:10:31;-4.40;99.90
75262;DHT22;63859;51.064;4.580;2024-01-10T09:12:58;-4.40;99.90
75262;DHT22;63859;51.064;4.580;2024-01-10T09:15:24;-4.30;99.90
75262;DHT22;63859;51.064;4.580;2024-01-10T09:17:50;-4.30;99.90
75262;DHT22;63859;51.064;4.580;2024-01-10T09:20:17;-4.20;99.90
75262;DHT22;63859;51.064;4.580;2024-01-10T09:22:43;-4.20;99.90
75262;DHT22;63859;51.064;4.580;2024-01-10T09:25:09;-4.10;99.90
75262;DHT22;63859;51.064;4.580;2024-01-10T09:30:10;-4.10;99.90
75262;DHT22;63859;51.064;4.580;2024-01-10T09:35:03;-4.10;99.90
75262;DHT22;63859;51.064;4.580;2024-01-10T09:37:29;-4.10;99.90
75262;DHT22;63859;51.064;4.580;2024-01-10T09:39:55;-4.00;99.90
75262;DHT22;63859;51.064;4.580;2024-01-10T09:42:21;-4.00;99.90
75262;DHT22;63859;51.064;4.580;2024-01-10T09:44:51;-3.80;99.90
75262;DHT22;63859;51.064;4.580;2024-01-10T09:47:17;-3.80;99.90
75262;DHT22;63859;51.064;4.580;2024-01-10T09:49:43;-3.80;99.90
75262;DHT22;63859;51.064;4.580;2024-01-10T09:52:19;-3.70;99.90
75262;DHT22;63859;51.064;4.580;2024-01-10T09:54:55;-3.70;99.90
75262;DHT22;63859;51.064;4.580;2024-01-10T09:57:24;-3.70;99.90
75262;DHT22;63859;51.064;4.580;2024-01-10T09:59:53;-3.70;99.90
75262;DHT22;63859;51.064;4.580;2024-01-10T10:02:23;-3.60;99.90
75262;DHT22;63859;51.064;4.580;2024-01-10T10:05:18;-3.50;99.90
75262;DHT22;63859;51.064;4.580;2024-01-10T10:10:19;-3.40;99.90
75262;DHT22;63859;51.064;4.580;2024-01-10T10:12:50;-3.40;99.90
75262;DHT22;63859;51.064;4.580;2024-01-10T10:15:23;-3.40;99.90
75262;DHT22;63859;51.064;4.580;2024-01-10T10:17:52;-3.30;99.90
75262;DHT22;63859;51.064;4.580;2024-01-10T10:20:23;-3.30;99.90
75262;DHT22;63859;51.064;4.580;2024-01-10T10:23:07;-3.20;99.90
75262;DHT22;63859;51.064;4.580;2024-01-10T10:25:37;-3.10;99.90
75262;DHT22;63859;51.064;4.580;2024-01-10T10:28:05;-3.10;99.90
75262;DHT22;63859;51.064;4.580;2024-01-10T10:30:32;-3.00;99.90
75262;DHT22;63859;51.064;4.580;2024-01-10T10:32:58;-3.00;99.90
75262;DHT22;63859;51.064;4.580;2024-01-10T10:35:24;-3.00;99.90
75262;DHT22;63859;51.064;4.580;2024-01-10T10:37:51;-2.80;99.90
75262;DHT22;63859;51.064;4.580;2024-01-10T10:40:17;-2.80;99.90
75262;DHT22;63859;51.064;4.580;2024-01-10T10:42:57;-2.80;99.90
75262;DHT22;63859;51.064;4.580;2024-01-10T10:45:22;-2.70;99.90
75262;DHT22;63859;51.064;4.580;2024-01-10T10:48:00;-2.70;99.90
75262;DHT22;63859;51.064;4.580;2024-01-10T10:50:30;-2.60;99.90
75262;DHT22;63859;51.064;4.580;2024-01-10T10:52:59;-2.60;99.90
75262;DHT22;63859;51.064;4.580;2024-01-10T10:55:26;-2.50;99.90
75262;DHT22;63859;51.064;4.580;2024-01-10T10:57:54;-2.50;99.90
75262;DHT22;63859;51.064;4.580;2024-01-10T11:00:21;-2.40;99.90
75262;DHT22;63859;51.064;4.580;2024-01-10T11:02:53;-2.40;99.90
75262;DHT22;63859;51.064;4.580;2024-01-10T11:05:20;-2.30;99.90
75262;DHT22;63859;51.064;4.580;2024-01-10T11:07:47;-2.30;99.90
75262;DHT22;63859;51.064;4.580;2024-01-10T11:18:48;-2.00;99.90
75262;DHT22;63859;51.064;4.580;2024-01-10T11:24:03;-1.80;99.90
75262;DHT22;63859;51.064;4.580;2024-01-10T11:26:29;-1.70;99.90
75262;DHT22;63859;51.064;4.580;2024-01-10T11:28:56;-1.70;99.90
75262;DHT22;63859;51.064;4.580;2024-01-10T11:31:30;-1.60;99.90
75262;DHT22;63859;51.064;4.580;2024-01-10T11:34:00;-1.50;99.90
75262;DHT22;63859;51.064;4.580;2024-01-10T11:36:27;-1.40;99.90
75262;DHT22;63859;51.064;4.580;2024-01-10T11:41:38;-1.20;99.90
75262;DHT22;63859;51.064;4.580;2024-01-10T11:46:45;-1.00;99.90
75262;DHT22;63859;51.064;4.580;2024-01-10T11:49:13;-0.90;99.90
75262;DHT22;63859;51.064;4.580;2024-01-10T11:51:45;-0.80;99.90
75262;DHT22;63859;51.064;4.580;2024-01-10T11:54:12;-0.70;99.90
75262;DHT22;63859;51.064;4.580;2024-01-10T11:56:40;-0.60;99.90
75262;DHT22;63859;51.064;4.580;2024-01-10T11:59:11;-0.40;99.90
75262;DHT22;63859;51.064;4.580;2024-01-10T12:04:04;-0.10;99.90
75262;DHT22;63859;51.064;4.580;2024-01-10T12:06:35;0.10;99.90
75262;DHT22;63859;51.064;4.580;2024-01-10T12:09:02;0.30;99.90
75262;DHT22;63859;51.064;4.580;2024-01-10T12:11:30;0.40;99.90
75262;DHT22;63859;51.064;4.580;2024-01-10T12:13:56;0.70;99.90
75262;DHT22;63859;51.064;4.580;2024-01-10T12:16:23;1.00;99.90
75262;DHT22;63859;51.064;4.580;2024-01-10T12:18:49;1.20;99.90
75262;DHT22;63859;51.064;4.580;2024-01-10T12:21:16;1.40;99.90
75262;DHT22;63859;51.064;4.580;2024-01-10T12:23:43;1.70;99.90
75262;DHT22;63859;51.064;4.580;2024-01-10T12:26:10;1.90;99.90
75262;DHT22;63859;51.064;4.580;2024-01-10T12:28:39;2.00;99.90
75262;DHT22;63859;51.064;4.580;2024-01-10T12:31:05;2.10;99.90
75262;DHT22;63859;51.064;4.580;2024-01-10T12:33:36;2.20;99.90
75262;DHT22;63859;51.064;4.580;2024-01-10T12:36:10;2.30;99.90
75262;DHT22;63859;51.064;4.580;2024-01-10T12:38:39;2.60;99.90
75262;DHT22;63859;51.064;4.580;2024-01-10T12:41:06;2.90;99.90
75262;DHT22;63859;51.064;4.580;2024-01-10T12:43:35;3.10;99.90
75262;DHT22;63859;51.064;4.580;2024-01-10T12:46:06;3.40;99.90
75262;DHT22;63859;51.064;4.580;2024-01-10T12:48:33;3.60;99.90
75262;DHT22;63859;51.064;4.580;2024-01-10T12:51:02;3.60;99.90
75262;DHT22;63859;51.064;4.580;2024-01-10T12:53:38;3.60;99.90
75262;DHT22;63859;51.064;4.580;2024-01-10T12:56:05;3.90;99.90
75262;DHT22;63859;51.064;4.580;2024-01-10T12:58:31;3.90;99.90
75262;DHT22;63859;51.064;4.580;2024-01-10T13:00:57;4.10;99.90
75262;DHT22;63859;51.064;4.580;2024-01-10T13:03:23;4.30;99.90
75262;DHT22;63859;51.064;4.580;2024-01-10T13:08:17;4.40;99.90
75262;DHT22;63859;51.064;4.580;2024-01-10T13:10:42;4.30;99.90
75262;DHT22;63859;51.064;4.580;2024-01-10T13:13:08;4.00;99.90
75262;DHT22;63859;51.064;4.580;2024-01-10T13:15:34;4.10;99.90
75262;DHT22;63859;51.064;4.580;2024-01-10T13:18:00;4.40;99.90
75262;DHT22;63859;51.064;4.580;2024-01-10T13:20:25;4.40;99.90
75262;DHT22;63859;51.064;4.580;2024-01-10T13:22:51;4.50;99.90
75262;DHT22;63859;51.064;4.580;2024-01-10T13:25:18;4.40;99.90
75262;DHT22;63859;51.064;4.580;2024-01-10T13:27:46;4.50;99.90
75262;DHT22;63859;51.064;4.580;2024-01-10T13:30:12;4.80;99.90
75262;DHT22;63859;51.064;4.580;2024-01-10T13:32:38;5.00;99.90
75262;DHT22;63859;51.064;4.580;2024-01-10T13:35:04;5.00;99.90
75262;DHT22;63859;51.064;4.580;2024-01-10T13:37:30;5.00;99.90
75262;DHT22;63859;51.064;4.580;2024-01-10T13:39:57;5.00;99.90
75262;DHT22;63859;51.064;4.580;2024-01-10T13:42:23;5.10;99.90
75262;DHT22;63859;51.064;4.580;2024-01-10T13:44:49;5.10;99.90
75262;DHT22;63859;51.064;4.580;2024-01-10T13:47:17;5.00;99.90
75262;DHT22;63859;51.064;4.580;2024-01-10T13:49:43;4.50;99.90
75262;DHT22;63859;51.064;4.580;2024-01-10T13:52:09;3.90;99.90
75262;DHT22;63859;51.064;4.580;2024-01-10T13:54:34;3.40;99.90
75262;DHT22;63859;51.064;4.580;2024-01-10T13:57:02;3.00;99.90
75262;DHT22;63859;51.064;4.580;2024-01-10T13:59:28;2.70;99.90
75262;DHT22;63859;51.064;4.580;2024-01-10T14:01:54;2.50;99.90
75262;DHT22;63859;51.064;4.580;2024-01-10T14:04:20;2.50;99.90
75262;DHT22;63859;51.064;4.580;2024-01-10T14:06:48;2.60;99.90
75262;DHT22;63859;51.064;4.580;2024-01-10T14:09:13;2.80;99.90
75262;DHT22;63859;51.064;4.580;2024-01-10T14:11:39;2.90;99.90
75262;DHT22;63859;51.064;4.580;2024-01-10T14:14:05;3.00;99.90
75262;DHT22;63859;51.064;4.580;2024-01-10T14:16:31;3.10;99.90
75262;DHT22;63859;51.064;4.580;2024-01-10T14:18:56;3.30;99.90
75262;DHT22;63859;51.064;4.580;2024-01-10T14:21:22;3.50;99.90
75262;DHT22;63859;51.064;4.580;2024-01-10T14:23:48;3.40;99.90
75262;DHT22;63859;51.064;4.580;2024-01-10T14:26:15;3.00;99.90
75262;DHT22;63859;51.064;4.580;2024-01-10T14:28:41;2.70;99.90
75262;DHT22;63859;51.064;4.580;2024-01-10T14:31:06;2.40;99.90
75262;DHT22;63859;51.064;4.580;2024-01-10T14:33:32;2.10;99.90
75262;DHT22;63859;51.064;4.580;2024-01-10T14:35:59;1.90;99.90
75262;DHT22;63859;51.064;4.580;2024-01-10T14:38:25;1.70;99.90
75262;DHT22;63859;51.064;4.580;2024-01-10T14:40:51;1.60;99.90
75262;DHT22;63859;51.064;4.580;2024-01-10T14:43:17;1.50;99.90
75262;DHT22;63859;51.064;4.580;2024-01-10T14:45:43;1.40;99.90
75262;DHT22;63859;51.064;4.580;2024-01-10T14:48:09;1.30;99.90
75262;DHT22;63859;51.064;4.580;2024-01-10T14:50:35;1.10;99.90
75262;DHT22;63859;51.064;4.580;2024-01-10T14:53:01;1.10;99.90
75262;DHT22;63859;51.064;4.580;2024-01-10T14:55:27;1.00;99.90
75262;DHT22;63859;51.064;4.580;2024-01-10T14:57:54;0.90;99.90
75262;DHT22;63859;51.064;4.580;2024-01-10T15:00:20;0.90;99.90
75262;DHT22;63859;51.064;4.580;2024-01-10T15:02:46;0.80;99.90
75262;DHT22;63859;51.064;4.580;2024-01-10T15:05:12;0.70;99.90
75262;DHT22;63859;51.064;4.580;2024-01-10T15:07:40;0.70;99.90
75262;DHT22;63859;51.064;4.580;2024-01-10T15:10:06;0.60;99.90
75262;DHT22;63859;51.064;4.580;2024-01-10T15:12:33;0.50;99.90
75262;DHT22;63859;51.064;4.580;2024-01-10T15:14:58;0.60;99.90
75262;DHT22;63859;51.064;4.580;2024-01-10T15:17:26;0.50;99.90
75262;DHT22;63859;51.064;4.580;2024-01-10T15:19:52;0.40;99.90
75262;DHT22;63859;51.064;4.580;2024-01-10T15:22:17;0.40;99.90
75262;DHT22;63859;51.064;4.580;2024-01-10T15:24:43;0.30;99.90
75262;DHT22;63859;51.064;4.580;2024-01-10T15:27:09;0.30;99.90
75262;DHT22;63859;51.064;4.580;2024-01-10T15:29:39;0.20;99.90
75262;DHT22;63859;51.064;4.580;2024-01-10T15:32:05;0.20;99.90
75262;DHT22;63859;51.064;4.580;2024-01-10T15:34:31;0.20;99.90
75262;DHT22;63859;51.064;4.580;2024-01-10T15:36:56;0.10;99.90
75262;DHT22;63859;51.064;4.580;2024-01-10T15:39:22;0.10;99.90
75262;DHT22;63859;51.064;4.580;2024-01-10T15:41:50;0.10;99.90
75262;DHT22;63859;51.064;4.580;2024-01-10T15:44:17;0.00;99.90
75262;DHT22;63859;51.064;4.580;2024-01-10T15:46:43;-0.10;99.90
75262;DHT22;63859;51.064;4.580;2024-01-10T15:49:09;-0.10;99.90
75262;DHT22;63859;51.064;4.580;2024-01-10T15:51:35;-0.10;99.90
75262;DHT22;63859;51.064;4.580;2024-01-10T15:54:00;-0.20;99.90
75262;DHT22;63859;51.064;4.580;2024-01-10T15:56:26;-0.10;99.90
75262;DHT22;63859;51.064;4.580;2024-01-10T15:58:52;-0.30;99.90
75262;DHT22;63859;51.064;4.580;2024-01-10T16:01:18;-0.30;99.90
75262;DHT22;63859;51.064;4.580;2024-01-10T16:03:44;-0.30;99.90
75262;DHT22;63859;51.064;4.580;2024-01-10T16:06:10;-0.40;99.90
75262;DHT22;63859;51.064;4.580;2024-01-10T16:11:02;-0.50;99.90
75262;DHT22;63859;51.064;4.580;2024-01-10T16:15:54;-0.50;99.90
75262;DHT22;63859;51.064;4.580;2024-01-10T16:18:23;-0.60;99.90
75262;DHT22;63859;51.064;4.580;2024-01-10T16:20:49;-0.60;99.90
75262;DHT22;63859;51.064;4.580;2024-01-10T16:23:14;-0.70;99.90